createdAt,value
2022-11-23T00:03:16.886Z,8.67
2022-11-23T00:08:18.593Z,8.25
2022-11-23T00:13:20.411Z,8.77
2022-11-23T00:18:22.155Z,8.55
2022-11-23T00:23:23.979Z,7.45
2022-11-23T00:28:25.690Z,7.78
2022-11-23T00:33:27.323Z,6.65
2022-11-23T00:38:29.385Z,5.57
2022-11-23T00:43:31.559Z,4.28
2022-11-23T00:48:33.606Z,4.97
2022-11-23T00:53:36.200Z,5.43
2022-11-23T00:58:37.932Z,6.15
2022-11-23T01:03:45.823Z,6.97
2022-11-23T01:08:52.572Z,7.15
2022-11-23T01:13:54.884Z,6.57
2022-11-23T01:19:02.828Z,6.72
2022-11-23T01:24:06.679Z,7.43
2022-11-23T01:29:08.507Z,6.80
2022-11-23T01:34:12.425Z,7.38
2022-11-23T01:39:14.744Z,6.43
2022-11-23T01:44:33.706Z,6.95
2022-11-23T01:49:45.442Z,6.38
2022-11-23T01:54:53.160Z,6.90
2022-11-23T01:59:56.144Z,6.80
2022-11-23T02:05:00.670Z,7.20
2022-11-23T02:10:02.552Z,6.80
2022-11-23T02:15:04.735Z,6.05
2022-11-23T02:20:17.491Z,6.55
2022-11-23T02:25:30.489Z,6.68
2022-11-23T02:30:33.318Z,7.10
2022-11-23T02:35:35.334Z,7.07
2022-11-23T02:40:37.157Z,6.25
2022-11-23T02:45:47.901Z,6.85
2022-11-23T02:50:49.620Z,6.10
2022-11-23T02:55:51.362Z,6.53
2022-11-23T03:00:53.106Z,6.30
2022-11-23T03:05:54.859Z,6.10
2022-11-23T03:10:56.555Z,5.63
2022-11-23T03:15:58.263Z,5.50
2022-11-23T03:21:07.248Z,5.78
2022-11-23T03:26:12.876Z,5.67
2022-11-23T03:31:15.114Z,5.38
2022-11-23T03:36:16.858Z,5.78
2022-11-23T03:41:18.538Z,5.32
2022-11-23T03:46:20.278Z,5.50
2022-11-23T03:51:22.820Z,5.15
2022-11-23T03:56:24.608Z,6.00
2022-11-23T04:01:26.385Z,5.23
2022-11-23T04:06:28.131Z,4.43
2022-11-23T04:11:29.868Z,4.60
2022-11-23T04:16:31.581Z,4.45
2022-11-23T04:21:33.273Z,4.30
2022-11-23T04:26:35.040Z,4.33
2022-11-23T04:31:36.742Z,4.30
2022-11-23T04:36:38.472Z,4.88
2022-11-23T04:41:40.208Z,4.13
2022-11-23T04:46:41.902Z,4.13
2022-11-23T04:51:44.697Z,4.30
2022-11-23T04:56:46.486Z,4.20
2022-11-23T05:01:48.580Z,3.33
2022-11-23T05:06:50.303Z,3.70
2022-11-23T05:11:51.997Z,3.13
2022-11-23T05:16:53.811Z,2.87
2022-11-23T05:21:55.592Z,3.10
2022-11-23T05:26:57.311Z,3.33
2022-11-23T05:31:58.977Z,3.70
2022-11-23T05:37:00.718Z,3.03
2022-11-23T05:42:02.430Z,3.97
2022-11-23T05:47:04.233Z,3.40
2022-11-23T05:52:05.925Z,3.33
2022-11-23T05:57:07.593Z,3.27
2022-11-23T06:02:09.477Z,3.28
2022-11-23T06:07:11.373Z,3.03
2022-11-23T06:12:13.131Z,3.13
2022-11-23T06:17:14.994Z,3.27
2022-11-23T06:22:16.760Z,3.47
2022-11-23T06:27:18.602Z,3.87
2022-11-23T06:32:20.445Z,4.28
2022-11-23T06:37:22.139Z,4.77
2022-11-23T06:42:38.488Z,4.47
2022-11-23T06:47:41.336Z,3.97
2022-11-23T06:52:42.997Z,3.60
2022-11-23T06:57:44.757Z,3.00
2022-11-23T07:02:54.388Z,3.70
2022-11-23T07:07:56.832Z,4.70
2022-11-23T07:13:06.888Z,4.90
2022-11-23T07:18:11.667Z,4.20
2022-11-23T07:23:13.370Z,4.25
2022-11-23T07:28:17.521Z,3.97
2022-11-23T07:33:19.235Z,4.20
2022-11-23T07:38:21.075Z,3.73
2022-11-23T07:43:22.791Z,3.50
2022-11-23T07:48:25.118Z,4.60
2022-11-23T07:53:26.820Z,4.70
2022-11-23T07:58:28.517Z,5.10
2022-11-23T08:03:30.708Z,4.50
2022-11-23T08:08:32.634Z,5.20
2022-11-23T08:13:34.588Z,3.67
2022-11-23T08:18:36.508Z,4.50
2022-11-23T08:23:38.281Z,3.88
2022-11-23T08:28:40.026Z,4.80
2022-11-23T08:33:42.148Z,4.43
2022-11-23T08:38:44.093Z,4.30
2022-11-23T08:43:46.201Z,5.17
2022-11-23T08:48:47.953Z,5.63
2022-11-23T08:53:50.068Z,4.70
2022-11-23T08:58:51.770Z,5.17
2022-11-23T09:03:53.501Z,4.80
2022-11-23T09:08:55.716Z,5.30
2022-11-23T09:13:57.403Z,5.05
2022-11-23T09:18:59.132Z,6.13
2022-11-23T09:24:00.857Z,6.20
2022-11-23T09:29:02.534Z,6.72
2022-11-23T09:34:04.674Z,6.93
2022-11-23T09:39:06.407Z,4.82
2022-11-23T09:44:23.547Z,4.20
2022-11-23T09:49:54.723Z,3.90
2022-11-23T09:55:00.389Z,4.40
2022-11-23T10:00:04.930Z,5.00
2022-11-23T10:05:07.984Z,3.63
2022-11-23T10:10:38.322Z,4.53
2022-11-23T10:15:59.080Z,4.77
2022-11-23T10:21:12.034Z,5.15
2022-11-23T10:26:17.368Z,5.60
2022-11-23T10:31:21.359Z,5.53
2022-11-23T10:36:23.092Z,5.28
2022-11-23T10:41:24.856Z,5.23
2022-11-23T10:46:29.742Z,4.95
2022-11-23T10:51:33.281Z,4.90
2022-11-23T10:56:35.172Z,4.97
2022-11-23T11:01:37.103Z,5.45
2022-11-23T11:06:38.936Z,4.63
2022-11-23T11:11:47.418Z,4.78
2022-11-23T11:16:56.871Z,4.18
2022-11-23T11:22:00.549Z,4.13
2022-11-23T11:27:15.518Z,4.03
2022-11-23T11:32:26.865Z,4.50
2022-11-23T11:37:46.642Z,4.55
2022-11-23T11:42:59.105Z,4.40
2022-11-23T11:48:04.979Z,4.50
2022-11-23T11:53:13.686Z,3.77
2022-11-23T11:58:16.902Z,3.38
2022-11-23T12:03:43.989Z,3.40
2022-11-23T12:08:59.721Z,3.75
2022-11-23T12:14:03.674Z,3.97
2022-11-23T12:19:32.876Z,3.50
2022-11-23T12:24:49.804Z,3.47
2022-11-23T12:29:51.471Z,3.15
2022-11-23T12:35:37.442Z,2.90
2022-11-23T12:41:22.838Z,2.97
2022-11-23T12:46:48.431Z,3.30
2022-11-23T12:51:50.057Z,3.08
2022-11-23T12:57:01.324Z,3.00
2022-11-23T13:02:09.564Z,3.00
2022-11-23T13:07:37.538Z,3.17
2022-11-23T13:13:16.529Z,2.80
2022-11-23T13:18:52.655Z,3.67
2022-11-23T13:23:54.512Z,4.35
2022-11-23T13:28:57.604Z,3.53
2022-11-23T13:34:02.541Z,4.35
2022-11-23T13:39:04.442Z,3.67
2022-11-23T13:44:26.316Z,3.80
2022-11-23T13:49:39.555Z,3.85
2022-11-23T13:54:41.324Z,4.03
2022-11-23T13:59:43.067Z,4.07
2022-11-23T14:04:46.246Z,4.23
2022-11-23T14:09:53.114Z,4.13
2022-11-23T14:15:08.397Z,4.70
2022-11-23T14:20:35.909Z,4.83
2022-11-23T14:25:56.299Z,3.85
2022-11-23T14:31:20.330Z,3.10
2022-11-23T14:36:41.440Z,3.73
2022-11-23T14:41:45.469Z,3.78
2022-11-23T14:47:04.778Z,3.20
2022-11-23T14:52:06.515Z,3.23
2022-11-23T14:57:14.093Z,2.83
2022-11-23T15:02:18.608Z,2.83
2022-11-23T15:07:25.031Z,2.80
2022-11-23T15:12:40.203Z,3.03
2022-11-23T15:17:55.077Z,3.28
2022-11-23T15:22:56.803Z,3.30
2022-11-23T15:27:58.580Z,4.20
2022-11-23T15:33:09.869Z,5.05
2022-11-23T15:38:19.042Z,5.18
2022-11-23T15:43:23.838Z,5.40
2022-11-23T15:48:34.126Z,4.25
2022-11-23T15:53:47.541Z,5.30
2022-11-23T15:58:51.302Z,5.07
2022-11-23T16:03:58.215Z,4.57
2022-11-23T16:09:00.087Z,4.18
2022-11-23T16:14:31.712Z,4.55
2022-11-23T16:19:34.215Z,4.68
2022-11-23T16:24:36.802Z,5.25
2022-11-23T16:29:39.826Z,4.93
2022-11-23T16:34:41.515Z,5.67
2022-11-23T16:39:43.397Z,6.07
2022-11-23T16:44:45.402Z,7.32
2022-11-23T16:49:47.375Z,6.25
2022-11-23T16:54:49.813Z,6.40
2022-11-23T16:59:51.611Z,7.65
2022-11-23T17:04:53.418Z,7.20
2022-11-23T17:09:55.211Z,6.10
2022-11-23T17:14:57.847Z,5.25
2022-11-23T17:20:04.272Z,6.38
2022-11-23T17:25:14.318Z,6.88
2022-11-23T17:30:19.956Z,6.32
2022-11-23T17:35:21.698Z,8.35
2022-11-23T17:40:24.354Z,9.88
2022-11-23T17:45:26.083Z,8.67
2022-11-23T17:50:27.770Z,9.15
2022-11-23T17:55:29.505Z,7.97
2022-11-23T18:00:31.886Z,7.90
2022-11-23T18:05:33.610Z,6.27
2022-11-23T18:10:35.314Z,6.85
2022-11-23T18:15:37.063Z,8.45
2022-11-23T18:20:38.893Z,9.30
2022-11-23T18:25:40.659Z,9.10
2022-11-23T18:30:42.472Z,11.60
2022-11-23T18:35:44.182Z,8.77
2022-11-23T18:40:45.895Z,10.43
2022-11-23T18:45:48.173Z,10.48
2022-11-23T18:50:50.145Z,11.97
2022-11-23T18:55:56.141Z,11.15
2022-11-23T19:01:10.795Z,9.20
2022-11-23T19:06:15.782Z,8.70
2022-11-23T19:11:19.843Z,9.05
2022-11-23T19:16:22.695Z,10.47
2022-11-23T19:21:27.660Z,9.45
2022-11-23T19:26:30.473Z,10.40
2022-11-23T19:31:32.920Z,10.60
2022-11-23T19:36:35.491Z,10.38
2022-11-23T19:41:37.345Z,10.13
2022-11-23T19:46:39.234Z,9.70
2022-11-23T19:51:41.047Z,10.80
2022-11-23T19:56:42.761Z,11.32
2022-11-23T20:01:44.650Z,11.52
2022-11-23T20:06:46.453Z,9.97
2022-11-23T20:11:51.187Z,9.93
2022-11-23T20:16:53.318Z,9.35
2022-11-23T20:21:55.191Z,10.07
2022-11-23T20:26:56.906Z,9.38
2022-11-23T20:31:58.652Z,9.43
2022-11-23T20:37:00.389Z,9.87
2022-11-23T20:42:02.071Z,9.23
2022-11-23T20:47:04.187Z,10.18
2022-11-23T20:52:06.132Z,9.10
2022-11-23T20:57:07.812Z,9.80
2022-11-23T21:02:10.078Z,14.00
2022-11-23T21:07:12.044Z,11.75
2022-11-23T21:12:13.780Z,10.40
2022-11-23T21:17:15.454Z,9.63
2022-11-23T21:22:17.222Z,9.82
2022-11-23T21:27:19.236Z,10.10
2022-11-23T21:32:21.440Z,11.07
2022-11-23T21:37:23.098Z,10.25
2022-11-23T21:42:24.845Z,10.60
2022-11-23T21:47:26.517Z,10.53
2022-11-23T21:52:28.238Z,10.73
2022-11-23T21:57:30.258Z,11.13
2022-11-23T22:02:32.356Z,10.50
2022-11-23T22:07:34.178Z,11.63
2022-11-23T22:12:36.099Z,12.27
2022-11-23T22:17:37.764Z,12.83
2022-11-23T22:22:39.428Z,13.63
2022-11-23T22:27:41.355Z,14.63
2022-11-23T22:32:43.229Z,13.30
2022-11-23T22:37:44.937Z,13.48
2022-11-23T22:42:46.745Z,12.35
2022-11-23T22:47:48.443Z,12.35
2022-11-23T22:52:50.115Z,10.82
2022-11-23T22:57:51.852Z,11.70
2022-11-23T23:02:55.092Z,9.55
2022-11-23T23:07:56.954Z,10.82
2022-11-23T23:12:58.613Z,10.95
2022-11-23T23:18:00.294Z,12.10
2022-11-23T23:23:02.053Z,11.02
2022-11-23T23:28:03.815Z,10.25
2022-11-23T23:33:05.547Z,15.50
2022-11-23T23:38:07.240Z,13.13
2022-11-23T23:43:08.922Z,10.73
2022-11-23T23:48:10.630Z,10.88
2022-11-23T23:53:12.273Z,11.32
2022-11-23T23:58:13.946Z,10.93
